Time;durP1;ratioP1;P1;durP2;ratioP2;P2;SDS_P1;SDS_P2;PMS_P1;PMS_P2;Temp;Humidity;BMP_temperature;BMP_pressure;BME280_temperature;BME280_humidity;BME280_pressure;Samples;Min_cycle;Max_cycle;Signal;HPM_P1;HPM_P2
2023/04/24 00:00:12;;;;;;;6.95;6.00;;;;;;;10.76;100.00;99735.19;5020355;28;20049;-76
2023/04/24 00:02:44;;;;;;;9.98;7.38;;;;;;;10.77;100.00;99729.03;5029049;28;20045;-76
2023/04/24 00:05:14;;;;;;;7.40;6.70;;;;;;;10.78;100.00;99725.50;5023823;28;20063;-76
2023/04/24 00:07:44;;;;;;;8.85;7.10;;;;;;;10.77;100.00;99729.03;4985561;28;20053;-76
2023/04/24 00:10:11;;;;;;;9.15;6.90;;;;;;;10.78;100.00;99722.88;5034741;28;20396;-76
2023/04/24 00:12:39;;;;;;;7.80;6.45;;;;;;;10.76;100.00;99720.25;5009493;28;20379;-76
2023/04/24 00:15:07;;;;;;;7.07;6.38;;;;;;;10.77;100.00;99715.84;4989901;28;20425;-76
2023/04/24 00:17:34;;;;;;;10.27;7.68;;;;;;;10.75;100.00;99718.50;5038726;28;20498;-76
2023/04/24 00:20:04;;;;;;;6.85;6.10;;;;;;;10.75;100.00;99715.00;5026648;28;20045;-75
2023/04/24 00:22:31;;;;;;;7.82;7.03;;;;;;;10.73;100.00;99705.34;4972730;28;20052;-75
2023/04/24 00:24:59;;;;;;;6.88;6.20;;;;;;;10.73;100.00;99704.47;5022819;28;20057;-75
2023/04/24 00:27:26;;;;;;;7.18;6.43;;;;;;;10.74;100.00;99708.88;4996581;28;20111;-75
2023/04/24 00:29:53;;;;;;;6.47;5.90;;;;;;;10.75;100.00;99704.47;5011208;28;20053;-75
2023/04/24 00:32:21;;;;;;;7.03;5.20;;;;;;;10.74;100.00;99706.22;5036762;28;20052;-75
2023/04/24 00:34:48;;;;;;;4.10;3.83;;;;;;;10.70;100.00;99701.91;5024616;28;20075;-74
2023/04/24 00:37:16;;;;;;;3.90;3.45;;;;;;;10.65;100.00;99698.47;5015903;28;20045;-75
2023/04/24 00:39:44;;;;;;;4.20;3.45;;;;;;;10.61;100.00;99702.03;4999117;28;20052;-75
2023/04/24 00:42:12;;;;;;;2.63;2.42;;;;;;;10.56;100.00;99690.69;5035598;28;20041;-74
2023/04/24 00:44:39;;;;;;;2.55;2.35;;;;;;;10.52;100.00;99698.63;5045723;28;20053;-75
2023/04/24 00:47:10;;;;;;;2.15;2.05;;;;;;;10.50;100.00;99692.53;5042875;28;20056;-74
2023/04/24 00:49:37;;;;;;;1.95;1.85;;;;;;;10.45;100.00;99691.75;5013130;28;20049;-75
2023/04/24 00:52:08;;;;;;;1.73;1.63;;;;;;;10.41;100.00;99684.75;5024143;28;20048;-74
2023/04/24 00:54:36;;;;;;;2.40;1.55;;;;;;;10.39;100.00;99685.69;4999545;28;20048;-75
2023/04/24 00:57:03;;;;;;;2.40;1.55;;;;;;;10.37;100.00;99684.84;5001968;28;20074;-74
2023/04/24 00:59:31;;;;;;;1.48;1.38;;;;;;;10.35;100.00;99674.31;5025081;28;20041;-75
2023/04/24 01:01:59;;;;;;;1.40;1.30;;;;;;;10.33;100.00;99686.66;5037437;28;20044;-75
2023/04/24 01:04:27;;;;;;;2.25;1.67;;;;;;;10.33;100.00;99684.00;5026474;28;20053;-74
2023/04/24 01:06:55;;;;;;;3.35;1.40;;;;;;;10.30;100.00;99677.03;5038927;28;20417;-75
2023/04/24 01:09:23;;;;;;;1.42;1.33;;;;;;;10.28;100.00;99675.25;4974434;28;22403;-75
2023/04/24 01:11:50;;;;;;;1.40;1.30;;;;;;;10.25;100.00;99676.19;5034249;28;20049;-74
2023/04/24 01:14:19;;;;;;;1.50;1.40;;;;;;;10.25;100.00;99676.19;5015426;28;20056;-76
2023/04/24 01:16:49;;;;;;;;;;;;;;;10.23;100.00;99679.75;5042375;28;20053;-74
2023/04/24 01:19:18;;;;;;;1.20;1.10;;;;;;;10.19;100.00;99678.91;5027787;28;19936;-76
2023/04/24 01:21:50;;;;;;;0.95;0.95;;;;;;;10.15;100.00;99671.94;5028315;28;20056;-76
2023/04/24 01:24:19;;;;;;;1.33;1.33;;;;;;;10.11;100.00;99664.97;5019787;28;20049;-76
2023/04/24 01:26:46;;;;;;;1.80;1.30;;;;;;;10.11;100.00;99670.22;4977279;28;20442;-76
2023/04/24 01:29:14;;;;;;;1.75;1.55;;;;;;;10.07;100.00;99671.16;5026421;28;20045;-76
2023/04/24 01:31:43;;;;;;;1.20;1.20;;;;;;;10.03;100.00;99672.97;5036982;28;20056;-75
2023/04/24 01:34:11;;;;;;;1.23;1.23;;;;;;;10.00;100.00;99674.78;5004841;28;20678;-76
2023/04/24 01:36:38;;;;;;;2.05;1.60;;;;;;;9.97;100.00;99665.16;5019690;28;20045;-76
2023/04/24 01:39:06;;;;;;;1.48;1.48;;;;;;;9.95;100.00;99666.94;5037066;28;20040;-74
2023/04/24 01:41:34;;;;;;;2.38;1.77;;;;;;;9.92;100.00;99667.88;4961859;28;20056;-74
2023/04/24 01:44:02;;;;;;;2.00;1.90;;;;;;;9.91;100.00;99663.47;5029594;28;20048;-77
2023/04/24 01:46:31;;;;;;;2.35;2.25;;;;;;;9.90;100.00;99666.13;5027620;28;20059;-74
2023/04/24 01:49:00;;;;;;;4.85;2.17;;;;;;;9.90;100.00;99667.00;5034029;28;20049;-74
2023/04/24 01:51:27;;;;;;;2.67;2.47;;;;;;;9.89;100.00;99672.31;5035052;28;20045;-76
2023/04/24 01:53:56;;;;;;;2.78;2.42;;;;;;;9.88;100.00;99665.28;5007435;28;20045;-77
2023/04/24 01:56:25;;;;;;;2.88;2.70;;;;;;;9.87;100.00;99663.56;4996005;28;20037;-75
2023/04/24 01:58:54;;;;;;;3.25;2.97;;;;;;;9.85;100.00;99660.03;4992873;28;20049;-74
2023/04/24 02:01:24;;;;;;;2.83;2.67;;;;;;;9.84;100.00;99667.06;5000254;28;20045;-74
2023/04/24 02:03:52;;;;;;;4.70;2.90;;;;;;;9.83;100.00;99670.63;5026614;28;20053;-77
2023/04/24 02:06:19;;;;;;;3.30;3.10;;;;;;;9.82;100.00;99660.97;5023153;28;20056;-76
2023/04/24 02:08:46;;;;;;;5.57;3.10;;;;;;;9.82;100.00;99655.69;5042791;28;20045;-74
2023/04/24 02:11:14;;;;;;;3.78;3.47;;;;;;;9.81;100.00;99653.09;5026023;28;20041;-77
2023/04/24 02:13:41;;;;;;;3.50;3.20;;;;;;;9.81;100.00;99658.34;4987755;28;20427;-75
2023/04/24 02:16:08;;;;;;;3.85;3.60;;;;;;;9.78;100.00;99661.03;5015306;28;20064;-74
2023/04/24 02:18:36;;;;;;;3.72;3.30;;;;;;;9.79;100.00;99671.53;5030417;28;20076;-76
2023/04/24 02:21:03;;;;;;;3.72;3.53;;;;;;;9.79;100.00;99653.09;5013752;28;20045;-76
2023/04/24 02:23:30;;;;;;;3.72;3.53;;;;;;;9.79;100.00;99654.88;5013629;28;20037;-76
2023/04/24 02:25:57;;;;;;;3.50;3.30;;;;;;;9.77;100.00;99654.88;5039770;28;20053;-76
2023/04/24 02:28:25;;;;;;;3.70;3.50;;;;;;;9.76;100.00;99661.91;4995891;28;20037;-76
2023/04/24 02:30:52;;;;;;;3.65;3.45;;;;;;;9.76;100.00;99655.78;5038020;28;20044;-76
2023/04/24 02:33:22;;;;;;;5.17;3.60;;;;;;;9.76;100.00;99663.69;5002779;28;20053;-76
2023/04/24 02:35:49;;;;;;;3.55;2.97;;;;;;;9.74;100.00;99657.56;5029564;28;20302;-76
2023/04/24 02:38:16;;;;;;;4.00;3.70;;;;;;;9.72;100.00;99654.97;5024451;28;20049;-76
2023/04/24 02:40:43;;;;;;;3.60;3.40;;;;;;;9.73;100.00;99651.44;5046443;28;20049;-76
2023/04/24 02:43:11;;;;;;;4.00;3.60;;;;;;;9.71;100.00;99658.47;4990677;28;20048;-76
2023/04/24 02:45:38;;;;;;;5.10;3.83;;;;;;;9.73;100.00;99661.97;5030128;28;20040;-76
2023/04/24 02:48:06;;;;;;;4.20;3.90;;;;;;;9.75;100.00;99657.56;5006517;28;20080;-76
2023/04/24 02:50:33;;;;;;;4.72;4.32;;;;;;;9.76;100.00;99659.28;5026578;28;20068;-76
2023/04/24 02:53:00;;;;;;;4.05;3.85;;;;;;;9.76;100.00;99661.91;5036142;28;20048;-76
2023/04/24 02:55:28;;;;;;;4.43;4.13;;;;;;;9.77;100.00;99662.78;5021183;28;20034;-76
2023/04/24 02:57:55;;;;;;;3.85;3.58;;;;;;;9.78;100.00;99661.91;5035440;28;20083;-76
2023/04/24 03:00:23;;;;;;;4.68;4.38;;;;;;;9.79;100.00;99665.41;4995003;28;20771;-76
2023/04/24 03:02:50;;;;;;;6.18;5.25;;;;;;;9.80;100.00;99664.53;5027478;28;20421;-76
2023/04/24 03:05:17;;;;;;;6.05;5.40;;;;;;;9.77;100.00;99665.41;5025516;28;20048;-76
2023/04/24 03:07:45;;;;;;;4.90;4.60;;;;;;;9.75;100.00;99662.81;5022453;28;20429;-75
2023/04/24 03:10:12;;;;;;;5.38;4.97;;;;;;;9.75;100.00;99665.44;5033485;28;20100;-76
2023/04/24 03:12:41;;;;;;;5.30;4.90;;;;;;;9.75;100.00;99661.94;5030644;28;20056;-75
2023/04/24 03:15:09;;;;;;;6.50;6.00;;;;;;;9.75;100.00;99673.34;4994196;28;20383;-76
2023/04/24 03:17:36;;;;;;;7.07;5.82;;;;;;;9.73;100.00;99671.59;5014771;28;20049;-76
2023/04/24 03:20:05;;;;;;;7.53;6.93;;;;;;;9.72;100.00;99668.09;5032278;28;20052;-75
2023/04/24 03:22:33;;;;;;;6.65;6.10;;;;;;;9.70;100.00;99672.53;5024593;28;20053;-76
2023/04/24 03:25:03;;;;;;;7.97;7.15;;;;;;;9.71;100.00;99668.13;5000771;28;20040;-76
2023/04/24 03:27:30;;;;;;;7.03;6.50;;;;;;;9.70;100.00;99674.28;5029404;28;20056;-76
2023/04/24 03:30:07;;;;;;;7.68;7.07;;;;;;;9.71;100.00;99668.97;4985675;28;20056;-76
2023/04/24 03:32:45;;;;;;;9.18;7.53;;;;;;;9.70;100.00;99669.03;5001392;28;20189;-76
2023/04/24 03:35:17;;;;;;;8.90;7.15;;;;;;;9.68;100.00;99673.44;5033805;28;20040;-75
2023/04/24 03:37:44;;;;;;;8.60;7.90;;;;;;;9.69;100.00;99665.50;5046368;28;20107;-76
2023/04/24 03:40:38;;;;;;;7.88;7.18;;;;;;;9.67;100.00;99664.66;5041342;28;20057;-76
2023/04/24 03:43:16;;;;;;;8.55;7.75;;;;;;;9.68;100.00;99663.78;5017164;28;20060;-75
2023/04/24 03:45:44;;;;;;;7.07;6.47;;;;;;;9.70;100.00;99669.03;4977036;28;20060;-75
2023/04/24 03:48:13;;;;;;;8.68;7.90;;;;;;;9.71;100.00;99663.72;5034402;28;20063;-75
2023/04/24 03:50:40;;;;;;;7.13;6.53;;;;;;;9.74;100.00;99673.34;5026000;28;20418;-75
2023/04/24 03:53:10;;;;;;;8.52;7.82;;;;;;;9.75;100.00;99670.72;5022447;28;20048;-74
2023/04/24 03:55:40;;;;;;;8.17;7.47;;;;;;;9.73;100.00;99671.59;5012761;28;20052;-76
2023/04/24 03:58:09;;;;;;;8.10;7.30;;;;;;;9.73;100.00;99677.75;5021821;28;20045;-76
2023/04/24 04:00:37;;;;;;;8.35;7.65;;;;;;;9.73;100.00;99677.75;5000779;28;20067;-76
2023/04/24 04:03:23;;;;;;;9.63;8.73;;;;;;;9.71;100.00;99670.75;4982608;28;20076;-74
2023/04/24 04:05:51;;;;;;;13.07;9.15;;;;;;;9.70;100.00;99676.91;5013907;28;20046;-76
2023/04/24 04:08:18;;;;;;;10.00;9.10;;;;;;;9.68;100.00;99682.19;5040254;28;20060;-76
2023/04/24 04:10:45;;;;;;;10.85;9.85;;;;;;;9.68;100.00;99682.19;5009718;28;20049;-76
2023/04/24 04:13:13;;;;;;;11.43;10.43;;;;;;;9.70;100.00;99677.78;5008309;28;20049;-76
2023/04/24 04:15:40;;;;;;;11.48;10.25;;;;;;;9.71;100.00;99690.03;5016512;28;20521;-76
2023/04/24 04:18:08;;;;;;;11.43;10.50;;;;;;;9.70;100.00;99688.31;4988680;28;20048;-76
2023/04/24 04:20:36;;;;;;;11.23;10.23;;;;;;;9.69;100.00;99696.22;5007944;28;20086;-76
2023/04/24 04:23:04;;;;;;;11.23;10.23;;;;;;;9.68;100.00;99694.47;5017992;28;20057;-76
2023/04/24 04:26:01;;;;;;;10.40;9.60;;;;;;;9.66;100.00;99706.75;5016051;28;20057;-75
2023/04/24 04:28:39;;;;;;;10.15;9.35;;;;;;;9.63;100.00;99707.66;5034186;28;20064;-76
2023/04/24 04:31:07;;;;;;;10.88;9.98;;;;;;;9.63;100.00;99715.56;5039080;28;20064;-75
2023/04/24 04:33:36;;;;;;;9.68;8.95;;;;;;;9.62;100.00;99710.31;4982141;28;20108;-76
2023/04/24 04:36:03;;;;;;;10.57;9.25;;;;;;;9.62;100.00;99711.22;5027815;28;20446;-76
2023/04/24 04:38:34;;;;;;;10.30;9.40;;;;;;;9.63;100.00;99718.19;5039648;28;21000;-76
2023/04/24 04:41:13;;;;;;;8.45;7.53;;;;;;;9.62;100.00;99711.22;5040338;28;20049;-76
2023/04/24 04:43:42;;;;;;;9.13;8.32;;;;;;;9.63;100.00;99722.59;5027844;28;20055;-76
2023/04/24 04:46:10;;;;;;;9.32;7.72;;;;;;;9.62;100.00;99723.47;5023620;28;20053;-76
2023/04/24 04:49:02;;;;;;;8.13;7.40;;;;;;;9.60;100.00;99728.72;4975615;28;20056;-76
2023/04/24 04:51:30;;;;;;;8.27;7.57;;;;;;;9.59;100.00;99723.53;5026464;28;21307;-76
2023/04/24 04:53:58;;;;;;;8.15;7.45;;;;;;;9.56;100.00;99738.44;5022538;28;20050;-75
2023/04/24 04:56:26;;;;;;;7.53;6.82;;;;;;;9.55;100.00;99735.81;5020115;28;20251;-74
2023/04/24 04:58:53;;;;;;;8.90;6.00;;;;;;;9.53;100.00;99734.97;5026140;28;20051;-75
2023/04/24 05:01:22;;;;;;;6.43;5.80;;;;;;;9.51;100.00;99734.13;5019303;28;20548;-74
2023/04/24 05:03:50;;;;;;;7.32;6.65;;;;;;;9.52;100.00;99731.44;4992547;28;20064;-76
2023/04/24 05:06:18;;;;;;;7.30;6.60;;;;;;;9.51;100.00;99734.97;4994169;28;20064;-74
2023/04/24 05:08:46;;;;;;;7.32;6.82;;;;;;;9.49;100.00;99742.03;5024578;28;20064;-74
2023/04/24 05:11:29;;;;;;;7.10;6.50;;;;;;;9.48;100.00;99742.03;5009742;28;20137;-75
2023/04/24 05:13:58;;;;;;;7.93;7.32;;;;;;;9.48;100.00;99748.16;5012544;28;20053;-75
2023/04/24 05:16:34;;;;;;;8.60;7.80;;;;;;;9.49;100.00;99749.00;5025958;28;20056;-76
2023/04/24 05:19:01;;;;;;;8.63;7.82;;;;;;;9.49;100.00;99755.16;4981781;28;20041;-74
2023/04/24 05:21:34;;;;;;;8.25;7.43;;;;;;;9.49;100.00;99757.78;5008624;28;21033;-74
2023/04/24 05:24:01;;;;;;;8.35;7.65;;;;;;;9.51;100.00;99763.03;5022760;28;20055;-74
2023/04/24 05:26:51;;;;;;;9.00;8.10;;;;;;;9.51;100.00;99757.78;4987139;28;20060;-75
2023/04/24 05:29:26;;;;;;;7.80;7.15;;;;;;;9.51;100.00;99765.69;5014961;28;20052;-76
2023/04/24 05:31:53;;;;;;;10.63;9.50;;;;;;;9.50;100.00;99771.81;5016042;28;20076;-74
2023/04/24 05:34:22;;;;;;;9.07;8.25;;;;;;;9.51;100.00;99770.94;4975413;28;20053;-74
2023/04/24 05:36:54;;;;;;;8.65;7.85;;;;;;;9.51;100.00;99782.31;5019002;28;20045;-74
2023/04/24 05:39:25;;;;;;;9.80;8.80;;;;;;;9.50;100.00;99783.19;4983753;28;20049;-74
2023/04/24 05:41:53;;;;;;;8.30;7.50;;;;;;;9.50;100.00;99790.22;5010558;28;20049;-74
2023/04/24 05:44:21;;;;;;;9.60;8.68;;;;;;;9.50;100.00;99785.81;4992685;28;20053;-74
2023/04/24 05:46:48;;;;;;;8.85;7.90;;;;;;;9.52;100.00;99791.06;5038476;28;20056;-74
2023/04/24 05:49:17;;;;;;;7.05;6.53;;;;;;;9.52;100.00;99791.94;4964048;28;20905;-74
2023/04/24 05:51:45;;;;;;;7.78;7.07;;;;;;;9.52;100.00;99793.69;5019294;28;20415;-74
2023/04/24 05:54:13;;;;;;;7.32;6.70;;;;;;;9.52;100.00;99805.09;5002089;28;20054;-75
2023/04/24 05:56:41;;;;;;;6.68;5.97;;;;;;;9.54;100.00;99797.19;5039832;28;20059;-74
2023/04/24 05:59:11;;;;;;;;;;;;;;;9.56;100.00;99801.56;5024225;28;20057;-75
2023/04/24 06:01:38;;;;;;;5.20;4.82;;;;;;;9.57;100.00;99805.06;5028108;28;19921;-74
2023/04/24 06:04:15;;;;;;;5.13;4.70;;;;;;;9.56;100.00;99804.19;5014563;28;20064;-74
2023/04/24 06:06:43;;;;;;;4.72;4.28;;;;;;;9.57;100.00;99802.44;4955657;28;20053;-74
2023/04/24 06:09:11;;;;;;;3.85;3.55;;;;;;;9.56;100.00;99808.56;4995142;28;20044;-74
2023/04/24 06:11:39;;;;;;;4.70;4.30;;;;;;;9.58;100.00;99804.16;5002961;28;20057;-74
2023/04/24 06:14:09;;;;;;;4.25;3.95;;;;;;;9.57;100.00;99818.22;5019127;28;20048;-74
2023/04/24 06:16:38;;;;;;;4.80;4.40;;;;;;;9.57;100.00;99813.81;5028877;28;20053;-74
2023/04/24 06:19:16;;;;;;;3.90;3.70;;;;;;;9.62;100.00;99815.53;5039760;28;20506;-74
2023/04/24 06:21:43;;;;;;;3.60;3.33;;;;;;;9.65;100.00;99812.88;5002957;28;20052;-74
2023/04/24 06:24:11;;;;;;;3.72;3.53;;;;;;;9.68;100.00;99826.00;5007049;28;20410;-74
2023/04/24 06:26:39;;;;;;;4.90;4.50;;;;;;;9.72;100.00;99822.47;4993343;28;20057;-74
2023/04/24 06:29:07;;;;;;;5.70;5.10;;;;;;;9.73;100.00;99835.59;5021027;28;20057;-74
2023/04/24 06:31:36;;;;;;;5.30;4.85;;;;;;;9.79;100.00;99836.41;5009228;28;20053;-74
2023/04/24 06:34:04;;;;;;;6.90;5.75;;;;;;;9.84;100.00;99840.75;5041350;28;20521;-74
2023/04/24 06:36:35;;;;;;;5.32;4.82;;;;;;;9.90;100.00;99831.91;4984590;28;20045;-74
2023/04/24 06:39:02;;;;;;;5.03;4.50;;;;;;;9.94;100.00;99833.63;5017543;28;20044;-74
2023/04/24 06:41:29;;;;;;;6.15;5.55;;;;;;;9.96;100.00;99837.09;5016787;28;20049;-76
2023/04/24 06:43:57;;;;;;;5.70;4.53;;;;;;;9.99;100.00;99836.22;5013724;28;20050;-75
2023/04/24 06:46:25;;;;;;;6.10;5.15;;;;;;;9.99;100.00;99838.84;5011819;28;20418;-75
2023/04/24 06:48:56;;;;;;;8.27;5.28;;;;;;;9.98;100.00;99837.09;5023279;28;20490;-75
2023/04/24 06:51:25;;;;;;;7.22;5.95;;;;;;;10.00;100.00;99844.09;4981855;28;20529;-75
2023/04/24 06:53:53;;;;;;;7.72;6.20;;;;;;;10.02;100.00;99852.84;5014220;28;20053;-75
2023/04/24 06:56:20;;;;;;;8.70;6.40;;;;;;;10.04;100.00;99855.47;5021545;28;20542;-75
2023/04/24 06:58:48;;;;;;;8.52;7.50;;;;;;;10.03;100.00;99849.31;5029818;28;20053;-75
2023/04/24 07:01:15;;;;;;;9.93;6.78;;;;;;;10.06;100.00;99851.94;5004024;28;20049;-75
2023/04/24 07:03:43;;;;;;;5.55;5.05;;;;;;;10.06;100.00;99849.28;5004672;28;20425;-75
2023/04/24 07:06:13;;;;;;;5.50;5.00;;;;;;;10.08;100.00;99858.03;5016728;28;20049;-75
2023/04/24 07:08:41;;;;;;;6.45;4.10;;;;;;;10.12;100.00;99854.50;4964978;28;20499;-75
2023/04/24 07:11:09;;;;;;;22.75;5.05;;;;;;;10.15;100.00;99861.47;4999337;28;20060;-75
2023/04/24 07:13:40;;;;;;;5.88;3.72;;;;;;;10.22;100.00;99859.66;5026979;28;20049;-75
2023/04/24 07:16:08;;;;;;;4.82;3.60;;;;;;;10.22;100.00;99865.78;5017352;28;20037;-75
2023/04/24 07:18:36;;;;;;;3.80;3.40;;;;;;;10.19;100.00;99870.22;4993478;28;20056;-74
2023/04/24 07:21:03;;;;;;;4.45;4.05;;;;;;;10.15;100.00;99867.63;5040394;28;20414;-74
2023/04/24 07:23:31;;;;;;;5.15;4.50;;;;;;;10.15;100.00;99872.91;4974472;28;20395;-75
2023/04/24 07:25:58;;;;;;;5.43;4.75;;;;;;;10.12;100.00;99870.28;5017627;28;20060;-77
2023/04/24 07:28:26;;;;;;;4.85;4.32;;;;;;;10.09;100.00;99877.34;5015814;28;20052;-74
2023/04/24 07:30:53;;;;;;;3.97;3.15;;;;;;;10.03;100.00;99880.91;5034255;28;20060;-74
2023/04/24 07:33:21;;;;;;;4.88;3.17;;;;;;;10.01;100.00;99882.69;5026179;28;20514;-75
2023/04/24 07:35:48;;;;;;;3.00;2.63;;;;;;;9.99;100.00;99889.72;5042465;28;20068;-77
2023/04/24 07:38:16;;;;;;;3.60;2.97;;;;;;;9.99;100.00;99891.50;4992077;28;20492;-74
2023/04/24 07:40:43;;;;;;;2.70;2.50;;;;;;;10.01;100.00;99898.47;5005012;28;20054;-77
2023/04/24 07:43:10;;;;;;;5.75;2.70;;;;;;;10.03;100.00;99901.97;5012929;28;20049;-74
2023/04/24 07:45:39;;;;;;;4.68;2.75;;;;;;;10.04;100.00;99902.84;5026879;28;20046;-74
2023/04/24 07:48:08;;;;;;;4.43;3.22;;;;;;;10.04;100.00;99905.50;5024499;28;20053;-77
2023/04/24 07:50:36;;;;;;;3.10;2.58;;;;;;;10.02;100.00;99913.41;5025038;28;20045;-76
2023/04/24 07:53:03;;;;;;;4.72;3.30;;;;;;;9.98;100.00;99913.41;5022086;28;20056;-76
2023/04/24 07:55:31;;;;;;;4.10;3.70;;;;;;;9.95;100.00;99916.97;4966862;28;20049;-76
2023/04/24 07:57:58;;;;;;;6.75;3.40;;;;;;;9.93;100.00;99921.38;5015517;28;20494;-76
2023/04/24 08:00:25;;;;;;;21.58;3.95;;;;;;;9.91;100.00;99924.00;5006573;28;20053;-77
2023/04/24 08:02:53;;;;;;;8.15;2.95;;;;;;;9.90;100.00;99934.53;5014352;28;20992;-76
2023/04/24 08:05:20;;;;;;;4.68;2.90;;;;;;;9.87;100.00;99935.44;5012996;28;20435;-75
2023/04/24 08:07:50;;;;;;;5.97;3.33;;;;;;;9.82;100.00;99936.38;5015801;28;20171;-74
2023/04/24 08:10:17;;;;;;;5.28;2.78;;;;;;;9.77;100.00;99939.03;4955472;28;20406;-74
2023/04/24 08:12:44;;;;;;;4.60;2.42;;;;;;;9.70;100.00;99945.25;5017468;28;20050;-78
2023/04/24 08:15:12;;;;;;;4.70;2.90;;;;;;;9.63;100.00;99954.06;4976284;28;20048;-78
2023/04/24 08:17:40;;;;;;;3.72;2.90;;;;;;;9.57;100.00;99954.97;4986450;28;20049;-78
2023/04/24 08:20:13;;;;;;;5.57;3.15;;;;;;;9.53;100.00;99962.00;5008505;28;20036;-78
2023/04/24 08:22:42;;;;;;;5.43;3.72;;;;;;;9.52;100.00;99964.66;5030064;28;20442;-77
2023/04/24 08:25:10;;;;;;;4.55;4.10;;;;;;;9.49;100.00;99965.56;4957925;28;20052;-77
2023/04/24 08:27:39;;;;;;;4.57;3.70;;;;;;;9.45;100.00;99982.25;5029633;28;20049;-77
2023/04/24 08:30:07;;;;;;;12.98;4.90;;;;;;;9.42;100.00;99989.28;5022518;28;20053;-78
2023/04/24 08:32:35;;;;;;;4.75;3.95;;;;;;;9.36;100.00;99988.41;5035152;28;20044;-77
2023/04/24 08:35:03;;;;;;;7.95;5.32;;;;;;;9.33;100.00;100000.69;5031662;28;20045;-77
2023/04/24 08:37:30;;;;;;;9.63;5.30;;;;;;;9.30;100.00;99998.06;5042659;28;20056;-77
2023/04/24 08:39:58;;;;;;;9.85;5.75;;;;;;;9.29;100.00;100005.09;5009246;28;20049;-77
2023/04/24 08:42:28;;;;;;;6.80;5.20;;;;;;;9.26;100.00;100001.59;4995635;28;20064;-78
2023/04/24 08:44:55;;;;;;;8.27;6.32;;;;;;;9.26;100.00;99997.25;5013807;28;20048;-78
2023/04/24 08:47:24;;;;;;;8.45;6.70;;;;;;;9.27;100.00;100003.38;5000590;28;20053;-78
2023/04/24 08:49:53;;;;;;;10.18;6.00;;;;;;;9.25;100.00;100008.63;5021445;28;20548;-78
2023/04/24 08:52:21;;;;;;;9.55;6.63;;;;;;;9.24;100.00;100008.63;4999177;28;20064;-78
2023/04/24 08:54:49;;;;;;;9.63;7.45;;;;;;;9.22;100.00;100019.16;5028286;28;20057;-76
2023/04/24 08:57:17;;;;;;;12.98;9.95;;;;;;;9.21;100.00;100027.94;4970997;28;20045;-78
2023/04/24 08:59:45;;;;;;;19.85;10.70;;;;;;;9.18;100.00;100025.31;5020934;28;20075;-79
2023/04/24 09:02:13;;;;;;;17.75;11.50;;;;;;;9.17;100.00;100034.94;5015229;28;20045;-76
2023/04/24 09:04:43;;;;;;;29.05;15.00;;;;;;;9.15;100.00;100027.97;5030326;28;20056;-78
2023/04/24 09:07:12;;;;;;;25.38;15.38;;;;;;;9.14;100.00;100036.72;5019173;28;20045;-77
2023/04/24 09:09:41;;;;;;;27.63;15.98;;;;;;;9.11;100.00;100032.34;5033175;28;20041;-77
2023/04/24 09:12:09;;;;;;;20.92;15.18;;;;;;;9.12;100.00;100056.88;4987147;28;20037;-77
2023/04/24 09:14:42;;;;;;;21.10;14.50;;;;;;;9.08;100.00;100042.00;5027554;28;20044;-77
2023/04/24 09:17:09;;;;;;;20.75;14.13;;;;;;;9.05;100.00;100061.25;5013678;28;20045;-78
2023/04/24 09:19:37;;;;;;;19.83;13.50;;;;;;;9.06;100.00;100073.53;5034764;28;20060;-77
2023/04/24 09:22:08;;;;;;;28.67;14.45;;;;;;;9.03;100.00;100070.03;5002380;28;20052;-77
2023/04/24 09:24:36;;;;;;;31.58;14.27;;;;;;;8.96;100.00;100072.69;5030214;28;20581;-77
2023/04/24 09:27:03;;;;;;;27.13;13.75;;;;;;;8.91;100.00;100076.22;5021241;28;20045;-77
2023/04/24 09:29:32;;;;;;;22.40;12.52;;;;;;;8.84;100.00;100083.22;4965434;28;20352;-77
2023/04/24 09:32:18;;;;;;;26.38;13.15;;;;;;;8.80;100.00;100086.75;5008516;28;20056;-77
2023/04/24 09:34:47;;;;;;;18.50;12.88;;;;;;;8.80;100.00;100083.25;5033923;28;20037;-77
2023/04/24 09:37:29;;;;;;;23.05;13.43;;;;;;;8.81;100.00;100084.97;4988157;28;20514;-77
2023/04/24 09:40:15;;;;;;;18.90;11.98;;;;;;;8.77;100.00;100092.88;5041749;28;20055;-77
2023/04/24 09:42:53;;;;;;;22.77;13.07;;;;;;;8.76;100.00;100100.75;5022763;28;20064;-79
2023/04/24 09:45:20;;;;;;;21.25;13.00;;;;;;;8.76;100.00;100098.13;4992431;28;20469;-76
2023/04/24 09:47:53;;;;;;;18.33;13.85;;;;;;;8.78;100.00;100099.00;5032200;28;20050;-78
2023/04/24 09:50:21;;;;;;;17.10;11.32;;;;;;;8.80;100.00;100112.16;5010056;28;20049;-77
2023/04/24 09:53:02;;;;;;;15.57;9.77;;;;;;;8.78;100.00;100120.03;5028924;28;20506;-78
2023/04/24 09:55:29;;;;;;;14.95;8.80;;;;;;;8.73;100.00;100124.41;5040168;28;20076;-78
2023/04/24 09:58:04;;;;;;;13.48;8.73;;;;;;;8.72;100.00;100126.16;5038262;28;20056;-78
2023/04/24 10:00:32;;;;;;;16.25;10.00;;;;;;;8.72;100.00;100135.78;5011128;28;20080;-78
2023/04/24 10:03:02;;;;;;;11.48;9.15;;;;;;;8.71;100.00;100134.91;5030688;28;20045;-78
2023/04/24 10:05:32;;;;;;;15.75;8.65;;;;;;;8.72;100.00;100144.53;5025152;28;20033;-77
2023/04/24 10:08:05;;;;;;;14.95;9.15;;;;;;;8.71;100.00;100145.41;5023953;28;20054;-77
2023/04/24 10:10:39;;;;;;;12.73;7.85;;;;;;;8.70;100.00;100141.03;5044452;28;20064;-78
2023/04/24 10:13:08;;;;;;;13.25;8.25;;;;;;;8.70;100.00;100148.06;5028878;28;20820;-77
2023/04/24 10:15:37;;;;;;;13.70;7.55;;;;;;;8.67;100.00;100150.66;5001101;28;20063;-78
2023/04/24 10:18:06;;;;;;;13.63;8.05;;;;;;;8.63;100.00;100157.66;5022620;28;20071;-77
2023/04/24 10:20:36;;;;;;;10.95;7.53;;;;;;;8.63;100.00;100162.06;5022744;28;20064;-78
2023/04/24 10:23:04;;;;;;;13.40;8.40;;;;;;;8.62;100.00;100166.44;5000055;28;20056;-78
2023/04/24 10:25:33;;;;;;;16.90;7.95;;;;;;;8.64;100.00;100155.91;5025019;28;20049;-78
2023/04/24 10:28:02;;;;;;;14.38;8.13;;;;;;;8.60;100.00;100168.19;5027706;28;20053;-78
2023/04/24 10:30:37;;;;;;;11.95;6.97;;;;;;;8.61;100.00;100174.31;4959638;28;20769;-78
2023/04/24 10:33:07;;;;;;;12.60;6.88;;;;;;;8.56;100.00;100175.19;5024684;28;20049;-79
2023/04/24 10:35:39;;;;;;;15.57;7.60;;;;;;;8.54;100.00;100178.69;5021480;28;20057;-78
2023/04/24 10:38:13;;;;;;;13.70;5.55;;;;;;;8.54;100.00;100189.19;5030055;28;20410;-79
2023/04/24 10:40:43;;;;;;;12.38;6.25;;;;;;;8.48;100.00;100194.44;5029829;28;20049;-78
2023/04/24 10:43:16;;;;;;;14.87;5.27;;;;;;;8.47;100.00;100201.44;5030073;28;20057;-79
2023/04/24 10:46:01;;;;;;;10.90;5.28;;;;;;;8.50;100.00;100203.19;4961483;28;20048;-79
2023/04/24 10:48:28;;;;;;;11.77;5.35;;;;;;;8.55;100.00;100207.56;5022662;28;20059;-79
2023/04/24 10:50:56;;;;;;;11.80;5.57;;;;;;;8.63;100.00;100210.19;5033094;28;20068;-78
2023/04/24 10:53:27;;;;;;;7.95;5.13;;;;;;;8.75;100.00;100214.56;5000343;28;20049;-78
2023/04/24 10:55:57;;;;;;;9.40;4.53;;;;;;;8.82;100.00;100220.72;5039857;28;20055;-78
2023/04/24 10:58:40;;;;;;;7.80;4.45;;;;;;;8.86;100.00;100218.09;5017927;28;20045;-78
2023/04/24 11:01:07;;;;;;;10.85;4.82;;;;;;;8.88;100.00;100221.59;4988447;28;20425;-79
2023/04/24 11:03:36;;;;;;;10.27;3.60;;;;;;;8.90;100.00;100227.75;5014615;28;20054;-78
2023/04/24 11:06:06;;;;;;;7.72;3.38;;;;;;;8.88;100.00;100229.47;5025710;28;20814;-78
2023/04/24 11:08:45;;;;;;;10.95;4.50;;;;;;;8.90;100.00;100225.13;5036283;28;20064;-78
2023/04/24 11:11:18;;;;;;;7.30;3.83;;;;;;;8.95;100.00;100244.38;5025855;28;20045;-78
2023/04/24 11:13:54;;;;;;;7.50;3.33;;;;;;;8.97;100.00;100245.25;5013629;28;20057;-78
2023/04/24 11:16:35;;;;;;;6.63;3.22;;;;;;;8.93;100.00;100261.88;5031547;28;20049;-79
2023/04/24 11:19:19;;;;;;;13.90;4.13;;;;;;;8.95;100.00;100260.13;5015449;28;20120;-79
2023/04/24 11:21:47;;;;;;;10.80;4.20;;;;;;;9.01;100.00;100254.00;5024390;28;20045;-78
2023/04/24 11:24:27;;;;;;;7.28;3.50;;;;;;;9.04;100.00;100258.41;5010347;28;20741;-78
2023/04/24 11:26:58;;;;;;;7.65;3.92;;;;;;;9.02;100.00;100279.44;5028428;28;20049;-78
2023/04/24 11:29:44;;;;;;;;;;;;;;;9.04;100.00;100266.28;5036122;28;20041;-78
2023/04/24 11:32:23;;;;;;;6.88;2.75;;;;;;;9.06;100.00;100272.41;5009629;28;20295;-77
2023/04/24 11:34:57;;;;;;;7.97;2.47;;;;;;;9.02;100.00;100273.28;5029572;28;20049;-77
2023/04/24 11:37:33;;;;;;;8.82;2.80;;;;;;;8.98;100.00;100272.41;5011034;28;20049;-78